Guanajuato International Airport
MMLO : now visible

Airfield :











YOU CAN JOIN US ON...

 
LOGIN :

Register | Disclaimer

   EN    FR    IT 

 









Legend :    VFR   Marginal VFR   IFR   Intensive IFR   Very Intensive IFR
Visi :
Ceiling :
>= 8 km
>= 3000ft
5 to 8 km
1000 to 3000 ft
1500m to 5 km
500 to 1000 ft
800 to 1500m
200 to 500 ft
< 800m
< 200 ft
Symbols :   Thunderstorms  Fog  Heavy snow  Heavy precipitations  Wind > 20 kt







- Airport Elevation : 5956 ft
- IATA code : BJX


MMLO - Guanajuato International

CURRENT METAR :
  • 210947Z 05006KT 8SM SCT220 15/14 A3028 RMK 8/002

TAF TAF MMLO
Valid from the 21 at 06:00 until the 22 at 06:00 UTC


210504Z 2106/2206 18008KT P6SM SCT030 BKN080 OVC250
TEMPO 2106/2109 5SM TSRA BKN030CB
FM211800 09010KT P6SM BKN030CB BKN250
FM220500 12006KT P6SM SCT030 BKN250
No reported NOTAMs for that airfield.



MET'MAP, your aeronautical weather chart ! - Copyright ORBIFLY December 2007 - Disclaimer

ORBIFLY MET'MAP TEAM :

Programming & Development : Alexandra Zaïnal
Concept & Development : Baudouin d'Aumeries
Co-Development & Prog : Marc-Olivier Méhu
Technical & hardware support : Manuel Goepfert

Contact : metmap@orbifly.com




SOURCES & CREDITS :

   NOAA       Earth
Advisory